sensor_id;sensor_type;location;lat;lon;timestamp;temperature;humidity
25482;DHT22;13395;50.752;4.268;2023-04-15T00:00:05;10.70;99.90
25482;DHT22;13395;50.752;4.268;2023-04-15T00:02:31;10.70;99.90
25482;DHT22;13395;50.752;4.268;2023-04-15T00:04:56;10.60;99.90
25482;DHT22;13395;50.752;4.268;2023-04-15T00:07:22;10.70;99.90
25482;DHT22;13395;50.752;4.268;2023-04-15T00:09:47;10.80;99.90
25482;DHT22;13395;50.752;4.268;2023-04-15T00:12:13;10.80;99.90
25482;DHT22;13395;50.752;4.268;2023-04-15T00:14:39;10.80;99.90
25482;DHT22;13395;50.752;4.268;2023-04-15T00:17:04;10.80;99.90
25482;DHT22;13395;50.752;4.268;2023-04-15T00:19:30;10.80;99.90
25482;DHT22;13395;50.752;4.268;2023-04-15T00:21:56;10.90;99.90
25482;DHT22;13395;50.752;4.268;2023-04-15T00:24:23;10.90;99.90
25482;DHT22;13395;50.752;4.268;2023-04-15T00:26:48;11.00;99.90
25482;DHT22;13395;50.752;4.268;2023-04-15T00:29:14;11.00;99.90
25482;DHT22;13395;50.752;4.268;2023-04-15T00:31:40;10.90;99.90
25482;DHT22;13395;50.752;4.268;2023-04-15T00:34:06;10.90;99.90
25482;DHT22;13395;50.752;4.268;2023-04-15T00:36:32;10.90;99.90
25482;DHT22;13395;50.752;4.268;2023-04-15T00:38:59;10.90;99.90
25482;DHT22;13395;50.752;4.268;2023-04-15T00:41:25;10.80;99.90
25482;DHT22;13395;50.752;4.268;2023-04-15T00:43:50;10.80;99.90
25482;DHT22;13395;50.752;4.268;2023-04-15T00:46:17;10.70;99.90
25482;DHT22;13395;50.752;4.268;2023-04-15T00:48:45;10.70;99.90
25482;DHT22;13395;50.752;4.268;2023-04-15T00:51:12;10.60;99.90
25482;DHT22;13395;50.752;4.268;2023-04-15T00:53:38;10.60;99.90
25482;DHT22;13395;50.752;4.268;2023-04-15T00:56:04;10.60;99.90
25482;DHT22;13395;50.752;4.268;2023-04-15T00:58:30;10.60;99.90
25482;DHT22;13395;50.752;4.268;2023-04-15T01:00:56;10.60;99.90
25482;DHT22;13395;50.752;4.268;2023-04-15T01:03:22;10.60;99.90
25482;DHT22;13395;50.752;4.268;2023-04-15T01:05:48;10.60;99.90
25482;DHT22;13395;50.752;4.268;2023-04-15T01:08:14;10.60;99.90
25482;DHT22;13395;50.752;4.268;2023-04-15T01:10:40;10.60;99.90
25482;DHT22;13395;50.752;4.268;2023-04-15T01:13:06;10.70;99.90
25482;DHT22;13395;50.752;4.268;2023-04-15T01:15:32;10.80;99.90
25482;DHT22;13395;50.752;4.268;2023-04-15T01:18:00;10.80;99.90
25482;DHT22;13395;50.752;4.268;2023-04-15T01:20:27;10.70;99.90
25482;DHT22;13395;50.752;4.268;2023-04-15T01:22:54;10.60;99.90
25482;DHT22;13395;50.752;4.268;2023-04-15T01:25:33;10.60;99.90
25482;DHT22;13395;50.752;4.268;2023-04-15T01:27:59;10.60;99.90
25482;DHT22;13395;50.752;4.268;2023-04-15T01:30:25;10.50;99.90
25482;DHT22;13395;50.752;4.268;2023-04-15T01:32:54;10.50;99.90
25482;DHT22;13395;50.752;4.268;2023-04-15T01:35:20;10.50;99.90
25482;DHT22;13395;50.752;4.268;2023-04-15T01:37:47;10.60;99.90
25482;DHT22;13395;50.752;4.268;2023-04-15T01:40:13;10.60;99.90
25482;DHT22;13395;50.752;4.268;2023-04-15T01:42:39;10.50;99.90
25482;DHT22;13395;50.752;4.268;2023-04-15T01:45:05;10.50;99.90
25482;DHT22;13395;50.752;4.268;2023-04-15T01:47:31;10.50;99.90
25482;DHT22;13395;50.752;4.268;2023-04-15T01:49:57;10.50;99.90
25482;DHT22;13395;50.752;4.268;2023-04-15T01:52:23;10.40;99.90
25482;DHT22;13395;50.752;4.268;2023-04-15T01:54:49;10.40;99.90
25482;DHT22;13395;50.752;4.268;2023-04-15T01:57:15;10.30;99.90
25482;DHT22;13395;50.752;4.268;2023-04-15T01:59:41;10.40;99.90
25482;DHT22;13395;50.752;4.268;2023-04-15T02:02:07;10.40;99.90
25482;DHT22;13395;50.752;4.268;2023-04-15T02:04:32;10.40;99.90
25482;DHT22;13395;50.752;4.268;2023-04-15T02:06:58;10.50;99.90
25482;DHT22;13395;50.752;4.268;2023-04-15T02:09:24;10.50;99.90
25482;DHT22;13395;50.752;4.268;2023-04-15T02:11:50;10.60;99.90
25482;DHT22;13395;50.752;4.268;2023-04-15T02:14:17;10.50;99.90
25482;DHT22;13395;50.752;4.268;2023-04-15T02:16:42;10.50;99.90
25482;DHT22;13395;50.752;4.268;2023-04-15T02:19:08;10.50;99.90
25482;DHT22;13395;50.752;4.268;2023-04-15T02:21:34;10.50;99.90
25482;DHT22;13395;50.752;4.268;2023-04-15T02:23:59;10.60;99.90
25482;DHT22;13395;50.752;4.268;2023-04-15T02:26:26;10.50;99.90
25482;DHT22;13395;50.752;4.268;2023-04-15T02:28:53;10.50;99.90
25482;DHT22;13395;50.752;4.268;2023-04-15T02:31:19;10.50;99.90
25482;DHT22;13395;50.752;4.268;2023-04-15T02:33:45;10.50;99.90
25482;DHT22;13395;50.752;4.268;2023-04-15T02:36:11;10.50;99.90
25482;DHT22;13395;50.752;4.268;2023-04-15T02:38:37;10.50;99.90
25482;DHT22;13395;50.752;4.268;2023-04-15T02:41:05;10.50;99.90
25482;DHT22;13395;50.752;4.268;2023-04-15T02:43:31;10.50;99.90
25482;DHT22;13395;50.752;4.268;2023-04-15T02:45:57;10.50;99.90
25482;DHT22;13395;50.752;4.268;2023-04-15T02:48:22;10.50;99.90
25482;DHT22;13395;50.752;4.268;2023-04-15T02:50:48;10.60;99.90
25482;DHT22;13395;50.752;4.268;2023-04-15T02:53:14;10.60;99.90
25482;DHT22;13395;50.752;4.268;2023-04-15T02:55:39;10.60;99.90
25482;DHT22;13395;50.752;4.268;2023-04-15T02:58:05;10.60;99.90
25482;DHT22;13395;50.752;4.268;2023-04-15T03:00:31;10.60;99.90
25482;DHT22;13395;50.752;4.268;2023-04-15T03:03:00;10.60;99.90
25482;DHT22;13395;50.752;4.268;2023-04-15T03:05:26;10.60;99.90
25482;DHT22;13395;50.752;4.268;2023-04-15T03:07:53;10.60;99.90
25482;DHT22;13395;50.752;4.268;2023-04-15T03:10:19;10.50;99.90
25482;DHT22;13395;50.752;4.268;2023-04-15T03:12:45;10.60;99.90
25482;DHT22;13395;50.752;4.268;2023-04-15T03:15:10;10.60;99.90
25482;DHT22;13395;50.752;4.268;2023-04-15T03:17:36;10.60;99.90
25482;DHT22;13395;50.752;4.268;2023-04-15T03:20:03;10.60;99.90
25482;DHT22;13395;50.752;4.268;2023-04-15T03:22:30;10.50;99.90
25482;DHT22;13395;50.752;4.268;2023-04-15T03:24:56;10.50;99.90
25482;DHT22;13395;50.752;4.268;2023-04-15T03:27:22;10.50;99.90
25482;DHT22;13395;50.752;4.268;2023-04-15T03:29:47;10.60;99.90
25482;DHT22;13395;50.752;4.268;2023-04-15T03:32:13;10.60;99.90
25482;DHT22;13395;50.752;4.268;2023-04-15T03:34:40;10.60;99.90
25482;DHT22;13395;50.752;4.268;2023-04-15T03:37:06;10.60;99.90
25482;DHT22;13395;50.752;4.268;2023-04-15T03:39:32;10.60;99.90
25482;DHT22;13395;50.752;4.268;2023-04-15T03:41:58;10.60;99.90
25482;DHT22;13395;50.752;4.268;2023-04-15T03:44:26;10.60;99.90
25482;DHT22;13395;50.752;4.268;2023-04-15T03:46:52;10.60;99.90
25482;DHT22;13395;50.752;4.268;2023-04-15T03:49:18;10.60;99.90
25482;DHT22;13395;50.752;4.268;2023-04-15T03:51:44;10.50;99.90
25482;DHT22;13395;50.752;4.268;2023-04-15T03:54:10;10.40;99.90
25482;DHT22;13395;50.752;4.268;2023-04-15T03:56:37;10.30;99.90
25482;DHT22;13395;50.752;4.268;2023-04-15T03:59:02;10.20;99.90
25482;DHT22;13395;50.752;4.268;2023-04-15T04:01:28;10.10;99.90
25482;DHT22;13395;50.752;4.268;2023-04-15T04:03:54;9.90;99.90
25482;DHT22;13395;50.752;4.268;2023-04-15T04:06:20;9.80;99.90
25482;DHT22;13395;50.752;4.268;2023-04-15T04:08:46;9.80;99.90
25482;DHT22;13395;50.752;4.268;2023-04-15T04:11:11;9.70;99.90
25482;DHT22;13395;50.752;4.268;2023-04-15T04:13:37;9.80;99.90
25482;DHT22;13395;50.752;4.268;2023-04-15T04:16:03;9.80;99.90
25482;DHT22;13395;50.752;4.268;2023-04-15T04:18:30;9.90;99.90
25482;DHT22;13395;50.752;4.268;2023-04-15T04:20:56;9.80;99.90
25482;DHT22;13395;50.752;4.268;2023-04-15T04:23:22;9.90;99.90
25482;DHT22;13395;50.752;4.268;2023-04-15T04:25:47;10.00;99.90
25482;DHT22;13395;50.752;4.268;2023-04-15T04:28:13;10.10;99.90
25482;DHT22;13395;50.752;4.268;2023-04-15T04:30:39;10.10;99.90
25482;DHT22;13395;50.752;4.268;2023-04-15T04:33:06;10.10;99.90
25482;DHT22;13395;50.752;4.268;2023-04-15T04:35:31;10.20;99.90
25482;DHT22;13395;50.752;4.268;2023-04-15T04:37:59;10.20;99.90
25482;DHT22;13395;50.752;4.268;2023-04-15T04:40:25;10.30;99.90
25482;DHT22;13395;50.752;4.268;2023-04-15T04:42:52;10.30;99.90
25482;DHT22;13395;50.752;4.268;2023-04-15T04:45:17;10.30;99.90
25482;DHT22;13395;50.752;4.268;2023-04-15T04:47:43;10.30;99.90
25482;DHT22;13395;50.752;4.268;2023-04-15T04:50:09;10.20;99.90
25482;DHT22;13395;50.752;4.268;2023-04-15T04:52:35;10.20;99.90
25482;DHT22;13395;50.752;4.268;2023-04-15T04:55:01;10.10;99.90
25482;DHT22;13395;50.752;4.268;2023-04-15T04:57:26;10.20;99.90
25482;DHT22;13395;50.752;4.268;2023-04-15T04:59:52;10.30;99.90
25482;DHT22;13395;50.752;4.268;2023-04-15T05:02:17;10.30;99.90
25482;DHT22;13395;50.752;4.268;2023-04-15T05:04:43;10.20;99.90
25482;DHT22;13395;50.752;4.268;2023-04-15T05:07:09;10.20;99.90
25482;DHT22;13395;50.752;4.268;2023-04-15T05:09:35;10.20;99.90
25482;DHT22;13395;50.752;4.268;2023-04-15T05:12:02;10.30;99.90
25482;DHT22;13395;50.752;4.268;2023-04-15T05:14:28;10.20;99.90
25482;DHT22;13395;50.752;4.268;2023-04-15T05:16:53;10.30;99.90
25482;DHT22;13395;50.752;4.268;2023-04-15T05:19:19;10.30;99.90
25482;DHT22;13395;50.752;4.268;2023-04-15T05:21:45;10.40;99.90
25482;DHT22;13395;50.752;4.268;2023-04-15T05:24:10;10.50;99.90
25482;DHT22;13395;50.752;4.268;2023-04-15T05:26:36;10.50;99.90
25482;DHT22;13395;50.752;4.268;2023-04-15T05:29:02;10.50;99.90
25482;DHT22;13395;50.752;4.268;2023-04-15T05:31:27;10.60;99.90
25482;DHT22;13395;50.752;4.268;2023-04-15T05:33:53;10.60;99.90
25482;DHT22;13395;50.752;4.268;2023-04-15T05:36:18;10.60;99.90
25482;DHT22;13395;50.752;4.268;2023-04-15T05:38:44;10.50;99.90
25482;DHT22;13395;50.752;4.268;2023-04-15T05:41:10;10.50;99.90
25482;DHT22;13395;50.752;4.268;2023-04-15T05:43:36;10.60;99.90
25482;DHT22;13395;50.752;4.268;2023-04-15T05:46:02;10.50;99.90
25482;DHT22;13395;50.752;4.268;2023-04-15T05:48:27;10.50;99.90
25482;DHT22;13395;50.752;4.268;2023-04-15T05:50:53;10.60;99.90
25482;DHT22;13395;50.752;4.268;2023-04-15T05:53:19;10.60;99.90
25482;DHT22;13395;50.752;4.268;2023-04-15T05:55:45;10.70;99.90
25482;DHT22;13395;50.752;4.268;2023-04-15T05:58:11;10.80;99.90
25482;DHT22;13395;50.752;4.268;2023-04-15T06:00:36;10.80;99.90
25482;DHT22;13395;50.752;4.268;2023-04-15T06:03:03;10.70;99.90
25482;DHT22;13395;50.752;4.268;2023-04-15T06:05:28;10.70;99.90
25482;DHT22;13395;50.752;4.268;2023-04-15T06:07:54;10.90;99.90
25482;DHT22;13395;50.752;4.268;2023-04-15T06:10:19;10.90;99.90
25482;DHT22;13395;50.752;4.268;2023-04-15T06:12:45;11.00;99.90
25482;DHT22;13395;50.752;4.268;2023-04-15T06:15:11;11.10;99.90
25482;DHT22;13395;50.752;4.268;2023-04-15T06:17:36;11.10;99.90
25482;DHT22;13395;50.752;4.268;2023-04-15T06:20:02;11.20;99.90
25482;DHT22;13395;50.752;4.268;2023-04-15T06:22:28;11.30;99.90
25482;DHT22;13395;50.752;4.268;2023-04-15T06:24:54;11.50;99.90
25482;DHT22;13395;50.752;4.268;2023-04-15T06:27:20;11.50;99.90
25482;DHT22;13395;50.752;4.268;2023-04-15T06:29:45;11.70;99.90
25482;DHT22;13395;50.752;4.268;2023-04-15T06:32:12;11.80;99.90
25482;DHT22;13395;50.752;4.268;2023-04-15T06:34:37;11.80;99.90
25482;DHT22;13395;50.752;4.268;2023-04-15T06:37:03;12.00;99.90
25482;DHT22;13395;50.752;4.268;2023-04-15T06:39:29;12.20;99.90
25482;DHT22;13395;50.752;4.268;2023-04-15T06:41:54;12.30;99.90
25482;DHT22;13395;50.752;4.268;2023-04-15T06:44:20;12.30;99.90
25482;DHT22;13395;50.752;4.268;2023-04-15T06:46:46;12.70;99.90
25482;DHT22;13395;50.752;4.268;2023-04-15T06:49:12;13.20;99.90
25482;DHT22;13395;50.752;4.268;2023-04-15T06:51:37;13.70;99.90
25482;DHT22;13395;50.752;4.268;2023-04-15T06:54:04;14.20;99.90
25482;DHT22;13395;50.752;4.268;2023-04-15T06:56:33;14.70;99.90
25482;DHT22;13395;50.752;4.268;2023-04-15T06:58:59;15.10;99.90
25482;DHT22;13395;50.752;4.268;2023-04-15T07:01:25;15.30;99.90
25482;DHT22;13395;50.752;4.268;2023-04-15T07:03:51;15.20;99.90
25482;DHT22;13395;50.752;4.268;2023-04-15T07:06:16;15.00;99.90
25482;DHT22;13395;50.752;4.268;2023-04-15T07:08:42;14.90;99.90
25482;DHT22;13395;50.752;4.268;2023-04-15T07:11:08;14.80;99.90
25482;DHT22;13395;50.752;4.268;2023-04-15T07:13:33;14.70;99.90
25482;DHT22;13395;50.752;4.268;2023-04-15T07:15:59;14.90;99.90
25482;DHT22;13395;50.752;4.268;2023-04-15T07:18:25;15.20;99.90
25482;DHT22;13395;50.752;4.268;2023-04-15T07:20:50;15.40;99.90
25482;DHT22;13395;50.752;4.268;2023-04-15T07:23:16;15.50;99.90
25482;DHT22;13395;50.752;4.268;2023-04-15T07:25:42;15.30;99.90
25482;DHT22;13395;50.752;4.268;2023-04-15T07:28:08;16.00;99.90
25482;DHT22;13395;50.752;4.268;2023-04-15T07:30:33;16.90;99.90
25482;DHT22;13395;50.752;4.268;2023-04-15T07:33:00;17.40;99.90
25482;DHT22;13395;50.752;4.268;2023-04-15T07:35:26;18.70;99.90
25482;DHT22;13395;50.752;4.268;2023-04-15T07:37:52;20.00;99.80
25482;DHT22;13395;50.752;4.268;2023-04-15T07:40:18;20.50;97.10
25482;DHT22;13395;50.752;4.268;2023-04-15T07:42:44;21.00;96.70
25482;DHT22;13395;50.752;4.268;2023-04-15T07:45:10;22.20;94.00
25482;DHT22;13395;50.752;4.268;2023-04-15T07:47:36;22.50;92.20
25482;DHT22;13395;50.752;4.268;2023-04-15T07:50:01;23.00;90.30
25482;DHT22;13395;50.752;4.268;2023-04-15T07:52:27;23.10;87.70
25482;DHT22;13395;50.752;4.268;2023-04-15T07:54:53;23.00;87.40
25482;DHT22;13395;50.752;4.268;2023-04-15T07:57:18;23.00;85.30
25482;DHT22;13395;50.752;4.268;2023-04-15T07:59:44;23.80;83.10
25482;DHT22;13395;50.752;4.268;2023-04-15T08:02:10;23.70;79.30
25482;DHT22;13395;50.752;4.268;2023-04-15T08:04:36;24.00;79.50
25482;DHT22;13395;50.752;4.268;2023-04-15T08:07:03;23.00;79.10
25482;DHT22;13395;50.752;4.268;2023-04-15T08:09:29;22.70;80.00
25482;DHT22;13395;50.752;4.268;2023-04-15T08:11:55;22.80;81.40
25482;DHT22;13395;50.752;4.268;2023-04-15T08:14:21;23.30;80.30
25482;DHT22;13395;50.752;4.268;2023-04-15T08:16:47;23.90;79.30
25482;DHT22;13395;50.752;4.268;2023-04-15T08:19:12;24.10;76.80
25482;DHT22;13395;50.752;4.268;2023-04-15T08:21:38;23.90;77.70
25482;DHT22;13395;50.752;4.268;2023-04-15T08:24:05;23.50;76.40
25482;DHT22;13395;50.752;4.268;2023-04-15T08:26:31;23.80;77.00
25482;DHT22;13395;50.752;4.268;2023-04-15T08:28:57;22.80;77.50
25482;DHT22;13395;50.752;4.268;2023-04-15T08:31:22;21.50;78.60
25482;DHT22;13395;50.752;4.268;2023-04-15T08:33:48;20.90;82.40
25482;DHT22;13395;50.752;4.268;2023-04-15T08:36:16;19.70;84.10
25482;DHT22;13395;50.752;4.268;2023-04-15T08:38:43;19.40;87.30
25482;DHT22;13395;50.752;4.268;2023-04-15T08:41:19;19.10;87.90
25482;DHT22;13395;50.752;4.268;2023-04-15T08:43:57;19.40;88.20
25482;DHT22;13395;50.752;4.268;2023-04-15T08:46:25;19.70;86.80
25482;DHT22;13395;50.752;4.268;2023-04-15T08:48:51;19.90;86.70
25482;DHT22;13395;50.752;4.268;2023-04-15T08:51:20;20.50;84.50
25482;DHT22;13395;50.752;4.268;2023-04-15T08:53:46;20.80;83.70
25482;DHT22;13395;50.752;4.268;2023-04-15T08:56:14;21.10;81.60
25482;DHT22;13395;50.752;4.268;2023-04-15T08:58:44;20.60;79.90
25482;DHT22;13395;50.752;4.268;2023-04-15T09:01:11;20.20;80.00
25482;DHT22;13395;50.752;4.268;2023-04-15T09:03:38;19.70;82.00
25482;DHT22;13395;50.752;4.268;2023-04-15T09:06:07;19.60;84.50
25482;DHT22;13395;50.752;4.268;2023-04-15T09:08:33;20.00;84.90
25482;DHT22;13395;50.752;4.268;2023-04-15T09:11:02;19.80;81.50
25482;DHT22;13395;50.752;4.268;2023-04-15T09:13:28;19.60;82.30
25482;DHT22;13395;50.752;4.268;2023-04-15T09:15:54;19.90;83.00
25482;DHT22;13395;50.752;4.268;2023-04-15T09:18:35;19.60;82.20
25482;DHT22;13395;50.752;4.268;2023-04-15T09:21:12;19.60;82.30
25482;DHT22;13395;50.752;4.268;2023-04-15T09:23:40;20.00;81.70
25482;DHT22;13395;50.752;4.268;2023-04-15T09:26:06;20.40;80.20
25482;DHT22;13395;50.752;4.268;2023-04-15T09:28:33;20.60;79.40
25482;DHT22;13395;50.752;4.268;2023-04-15T09:31:05;22.10;79.40
25482;DHT22;13395;50.752;4.268;2023-04-15T09:33:31;23.00;75.20
25482;DHT22;13395;50.752;4.268;2023-04-15T09:36:01;23.60;72.90
25482;DHT22;13395;50.752;4.268;2023-04-15T09:38:28;24.70;72.80
25482;DHT22;13395;50.752;4.268;2023-04-15T09:40:54;25.70;69.00
25482;DHT22;13395;50.752;4.268;2023-04-15T09:43:19;26.20;65.40
25482;DHT22;13395;50.752;4.268;2023-04-15T09:45:48;26.10;67.00
25482;DHT22;13395;50.752;4.268;2023-04-15T09:50:45;24.40;66.60
25482;DHT22;13395;50.752;4.268;2023-04-15T09:53:15;25.20;65.90
25482;DHT22;13395;50.752;4.268;2023-04-15T09:55:52;25.20;65.40
25482;DHT22;13395;50.752;4.268;2023-04-15T09:58:20;24.90;64.70
25482;DHT22;13395;50.752;4.268;2023-04-15T10:00:50;25.20;65.00
25482;DHT22;13395;50.752;4.268;2023-04-15T10:03:20;25.30;63.60
25482;DHT22;13395;50.752;4.268;2023-04-15T10:05:47;26.00;58.00
25482;DHT22;13395;50.752;4.268;2023-04-15T10:08:16;24.80;57.00
25482;DHT22;13395;50.752;4.268;2023-04-15T10:10:42;24.50;58.10
25482;DHT22;13395;50.752;4.268;2023-04-15T10:13:09;24.80;60.30
25482;DHT22;13395;50.752;4.268;2023-04-15T10:15:35;24.80;60.90
25482;DHT22;13395;50.752;4.268;2023-04-15T10:18:03;25.00;58.90
25482;DHT22;13395;50.752;4.268;2023-04-15T10:20:30;25.10;58.90
25482;DHT22;13395;50.752;4.268;2023-04-15T10:23:04;24.50;60.00
25482;DHT22;13395;50.752;4.268;2023-04-15T10:25:32;24.10;59.80
25482;DHT22;13395;50.752;4.268;2023-04-15T10:27:59;24.50;59.90
25482;DHT22;13395;50.752;4.268;2023-04-15T10:30:25;24.30;58.70
25482;DHT22;13395;50.752;4.268;2023-04-15T10:32:51;24.10;57.50
25482;DHT22;13395;50.752;4.268;2023-04-15T10:35:18;24.00;59.10
25482;DHT22;13395;50.752;4.268;2023-04-15T10:37:46;24.10;58.60
25482;DHT22;13395;50.752;4.268;2023-04-15T10:42:52;24.00;60.80
25482;DHT22;13395;50.752;4.268;2023-04-15T10:45:18;24.70;59.80
25482;DHT22;13395;50.752;4.268;2023-04-15T10:47:44;25.50;58.90
25482;DHT22;13395;50.752;4.268;2023-04-15T10:50:10;25.60;58.00
25482;DHT22;13395;50.752;4.268;2023-04-15T10:52:39;25.70;57.20
25482;DHT22;13395;50.752;4.268;2023-04-15T10:57:38;27.00;54.30
25482;DHT22;13395;50.752;4.268;2023-04-15T11:05:14;27.10;54.80
25482;DHT22;13395;50.752;4.268;2023-04-15T11:12:58;28.20;53.90
25482;DHT22;13395;50.752;4.268;2023-04-15T11:17:50;28.20;51.40
25482;DHT22;13395;50.752;4.268;2023-04-15T11:20:16;26.20;54.00
25482;DHT22;13395;50.752;4.268;2023-04-15T11:22:52;25.20;53.70
25482;DHT22;13395;50.752;4.268;2023-04-15T11:25:26;24.90;53.70
25482;DHT22;13395;50.752;4.268;2023-04-15T11:27:53;25.20;53.00
25482;DHT22;13395;50.752;4.268;2023-04-15T11:30:23;25.50;52.40
25482;DHT22;13395;50.752;4.268;2023-04-15T11:32:56;26.50;52.00
25482;DHT22;13395;50.752;4.268;2023-04-15T11:35:22;26.90;52.10
25482;DHT22;13395;50.752;4.268;2023-04-15T11:37:49;27.30;49.80
25482;DHT22;13395;50.752;4.268;2023-04-15T11:40:16;28.10;47.60
25482;DHT22;13395;50.752;4.268;2023-04-15T11:42:45;28.10;47.00
25482;DHT22;13395;50.752;4.268;2023-04-15T11:45:13;27.50;43.80
25482;DHT22;13395;50.752;4.268;2023-04-15T11:47:42;27.30;45.80
25482;DHT22;13395;50.752;4.268;2023-04-15T11:50:18;28.00;47.60
25482;DHT22;13395;50.752;4.268;2023-04-15T11:55:19;28.00;44.60
25482;DHT22;13395;50.752;4.268;2023-04-15T11:57:45;28.00;46.90
25482;DHT22;13395;50.752;4.268;2023-04-15T12:00:12;28.60;45.50
25482;DHT22;13395;50.752;4.268;2023-04-15T12:02:38;27.70;44.90
25482;DHT22;13395;50.752;4.268;2023-04-15T12:05:06;28.10;44.40
25482;DHT22;13395;50.752;4.268;2023-04-15T12:07:32;27.20;44.80
25482;DHT22;13395;50.752;4.268;2023-04-15T12:09:58;27.20;44.50
25482;DHT22;13395;50.752;4.268;2023-04-15T12:12:27;27.40;43.00
25482;DHT22;13395;50.752;4.268;2023-04-15T12:14:55;27.60;41.40
25482;DHT22;13395;50.752;4.268;2023-04-15T12:17:22;27.90;40.90
25482;DHT22;13395;50.752;4.268;2023-04-15T12:19:54;27.60;42.10
25482;DHT22;13395;50.752;4.268;2023-04-15T12:22:20;27.80;42.40
25482;DHT22;13395;50.752;4.268;2023-04-15T12:24:46;28.30;42.40
25482;DHT22;13395;50.752;4.268;2023-04-15T12:27:15;28.20;38.90
25482;DHT22;13395;50.752;4.268;2023-04-15T12:29:42;27.90;40.20
25482;DHT22;13395;50.752;4.268;2023-04-15T12:32:11;27.10;40.10
25482;DHT22;13395;50.752;4.268;2023-04-15T12:34:43;26.80;40.20
25482;DHT22;13395;50.752;4.268;2023-04-15T12:37:10;25.90;43.80
25482;DHT22;13395;50.752;4.268;2023-04-15T12:39:41;26.00;46.00
25482;DHT22;13395;50.752;4.268;2023-04-15T12:42:07;25.90;45.60
25482;DHT22;13395;50.752;4.268;2023-04-15T12:44:34;26.90;47.00
25482;DHT22;13395;50.752;4.268;2023-04-15T12:47:00;28.00;44.90
25482;DHT22;13395;50.752;4.268;2023-04-15T12:49:26;27.90;44.00
25482;DHT22;13395;50.752;4.268;2023-04-15T12:51:53;26.80;41.10
25482;DHT22;13395;50.752;4.268;2023-04-15T12:54:19;26.10;41.90
25482;DHT22;13395;50.752;4.268;2023-04-15T12:56:46;26.00;41.90
25482;DHT22;13395;50.752;4.268;2023-04-15T12:59:13;25.60;42.70
25482;DHT22;13395;50.752;4.268;2023-04-15T13:01:39;25.40;43.10
25482;DHT22;13395;50.752;4.268;2023-04-15T13:04:05;25.80;44.00
25482;DHT22;13395;50.752;4.268;2023-04-15T13:06:31;25.60;44.70
25482;DHT22;13395;50.752;4.268;2023-04-15T13:08:58;26.10;43.70
25482;DHT22;13395;50.752;4.268;2023-04-15T13:11:26;26.50;43.50
25482;DHT22;13395;50.752;4.268;2023-04-15T13:13:53;26.50;42.50
25482;DHT22;13395;50.752;4.268;2023-04-15T13:16:19;25.80;43.90
25482;DHT22;13395;50.752;4.268;2023-04-15T13:18:47;25.00;44.10
25482;DHT22;13395;50.752;4.268;2023-04-15T13:21:12;24.70;44.70
25482;DHT22;13395;50.752;4.268;2023-04-15T13:23:38;24.60;44.50
25482;DHT22;13395;50.752;4.268;2023-04-15T13:26:03;24.10;45.10
25482;DHT22;13395;50.752;4.268;2023-04-15T13:28:29;23.70;46.10
25482;DHT22;13395;50.752;4.268;2023-04-15T13:30:55;22.80;45.80
25482;DHT22;13395;50.752;4.268;2023-04-15T13:33:21;21.80;48.20
25482;DHT22;13395;50.752;4.268;2023-04-15T13:35:46;21.50;48.60
25482;DHT22;13395;50.752;4.268;2023-04-15T13:38:12;21.20;49.60
25482;DHT22;13395;50.752;4.268;2023-04-15T13:40:37;21.10;50.80
25482;DHT22;13395;50.752;4.268;2023-04-15T13:43:03;20.80;51.10
25482;DHT22;13395;50.752;4.268;2023-04-15T13:45:29;20.50;53.10
25482;DHT22;13395;50.752;4.268;2023-04-15T13:47:55;20.40;53.00
25482;DHT22;13395;50.752;4.268;2023-04-15T13:50:21;20.60;54.80
25482;DHT22;13395;50.752;4.268;2023-04-15T13:52:47;20.40;53.70
25482;DHT22;13395;50.752;4.268;2023-04-15T13:55:13;20.10;55.40
25482;DHT22;13395;50.752;4.268;2023-04-15T13:57:38;20.10;54.00
25482;DHT22;13395;50.752;4.268;2023-04-15T14:00:05;20.30;52.50
25482;DHT22;13395;50.752;4.268;2023-04-15T14:02:31;20.00;51.50
25482;DHT22;13395;50.752;4.268;2023-04-15T14:04:57;19.80;52.50
25482;DHT22;13395;50.752;4.268;2023-04-15T14:07:22;19.70;51.40
25482;DHT22;13395;50.752;4.268;2023-04-15T14:09:48;19.80;52.70
25482;DHT22;13395;50.752;4.268;2023-04-15T14:12:14;19.80;53.50
25482;DHT22;13395;50.752;4.268;2023-04-15T14:14:39;19.70;54.00
25482;DHT22;13395;50.752;4.268;2023-04-15T14:17:05;19.60;54.80
25482;DHT22;13395;50.752;4.268;2023-04-15T14:19:31;19.70;56.10
25482;DHT22;13395;50.752;4.268;2023-04-15T14:21:57;19.80;57.20
25482;DHT22;13395;50.752;4.268;2023-04-15T14:24:23;19.80;58.20
25482;DHT22;13395;50.752;4.268;2023-04-15T14:26:49;19.90;59.10
25482;DHT22;13395;50.752;4.268;2023-04-15T14:29:15;19.80;57.60
25482;DHT22;13395;50.752;4.268;2023-04-15T14:31:41;20.00;57.80
25482;DHT22;13395;50.752;4.268;2023-04-15T14:34:08;20.00;57.40
25482;DHT22;13395;50.752;4.268;2023-04-15T14:36:34;19.70;57.20
25482;DHT22;13395;50.752;4.268;2023-04-15T14:39:00;19.70;59.30
25482;DHT22;13395;50.752;4.268;2023-04-15T14:41:25;19.60;58.10
25482;DHT22;13395;50.752;4.268;2023-04-15T14:43:51;19.40;59.70
25482;DHT22;13395;50.752;4.268;2023-04-15T14:46:17;19.60;61.60
25482;DHT22;13395;50.752;4.268;2023-04-15T14:48:42;19.70;59.10
25482;DHT22;13395;50.752;4.268;2023-04-15T14:51:08;19.60;59.30
25482;DHT22;13395;50.752;4.268;2023-04-15T14:53:34;19.50;59.30
25482;DHT22;13395;50.752;4.268;2023-04-15T14:55:59;19.50;59.40
25482;DHT22;13395;50.752;4.268;2023-04-15T14:58:25;19.40;58.10
25482;DHT22;13395;50.752;4.268;2023-04-15T15:00:51;19.30;59.50
25482;DHT22;13395;50.752;4.268;2023-04-15T15:03:16;19.30;58.30
25482;DHT22;13395;50.752;4.268;2023-04-15T15:05:44;19.20;59.00
25482;DHT22;13395;50.752;4.268;2023-04-15T15:08:10;19.10;59.40
25482;DHT22;13395;50.752;4.268;2023-04-15T15:10:36;18.70;58.50
25482;DHT22;13395;50.752;4.268;2023-04-15T15:13:07;18.60;60.80
25482;DHT22;13395;50.752;4.268;2023-04-15T15:15:33;18.40;60.70
25482;DHT22;13395;50.752;4.268;2023-04-15T15:17:59;18.00;62.40
25482;DHT22;13395;50.752;4.268;2023-04-15T15:20:25;17.90;64.00
25482;DHT22;13395;50.752;4.268;2023-04-15T15:22:51;18.10;64.10
25482;DHT22;13395;50.752;4.268;2023-04-15T15:25:17;18.10;64.30
25482;DHT22;13395;50.752;4.268;2023-04-15T15:27:42;18.10;64.70
25482;DHT22;13395;50.752;4.268;2023-04-15T15:30:08;18.40;64.40
25482;DHT22;13395;50.752;4.268;2023-04-15T15:32:34;18.70;63.70
25482;DHT22;13395;50.752;4.268;2023-04-15T15:35:00;18.80;64.40
25482;DHT22;13395;50.752;4.268;2023-04-15T15:37:26;18.80;66.10
25482;DHT22;13395;50.752;4.268;2023-04-15T15:39:52;18.50;68.00
25482;DHT22;13395;50.752;4.268;2023-04-15T15:42:18;18.10;70.30
25482;DHT22;13395;50.752;4.268;2023-04-15T15:44:43;18.10;71.00
25482;DHT22;13395;50.752;4.268;2023-04-15T15:47:09;18.00;71.50